sensor_id;sensor_type;location;lat;lon;timestamp;P1;durP1;ratioP1;P2;durP2;ratioP2
62798;SDS011;48842;51.046;13.796;2022-12-01T00:00:36;52.10;;;28.37;;
62798;SDS011;48842;51.046;13.796;2022-12-01T00:03:01;46.70;;;26.63;;
62798;SDS011;48842;51.046;13.796;2022-12-01T00:05:27;48.67;;;27.23;;
62798;SDS011;48842;51.046;13.796;2022-12-01T00:07:53;45.10;;;25.03;;
62798;SDS011;48842;51.046;13.796;2022-12-01T00:10:19;46.07;;;26.83;;
62798;SDS011;48842;51.046;13.796;2022-12-01T00:13:00;48.10;;;26.30;;
62798;SDS011;48842;51.046;13.796;2022-12-01T00:15:31;45.17;;;26.87;;
62798;SDS011;48842;51.046;13.796;2022-12-01T00:17:59;44.00;;;25.40;;
62798;SDS011;48842;51.046;13.796;2022-12-01T00:20:25;47.10;;;27.57;;
62798;SDS011;48842;51.046;13.796;2022-12-01T00:22:50;49.67;;;26.40;;
62798;SDS011;48842;51.046;13.796;2022-12-01T00:25:16;45.50;;;24.30;;
62798;SDS011;48842;51.046;13.796;2022-12-01T00:27:46;50.37;;;27.10;;
62798;SDS011;48842;51.046;13.796;2022-12-01T00:30:12;49.63;;;26.80;;
62798;SDS011;48842;51.046;13.796;2022-12-01T00:32:38;45.87;;;25.50;;
62798;SDS011;48842;51.046;13.796;2022-12-01T00:35:03;46.90;;;25.33;;
62798;SDS011;48842;51.046;13.796;2022-12-01T00:37:29;49.40;;;25.40;;
62798;SDS011;48842;51.046;13.796;2022-12-01T00:39:56;45.60;;;25.10;;
62798;SDS011;48842;51.046;13.796;2022-12-01T00:42:22;47.80;;;25.97;;
62798;SDS011;48842;51.046;13.796;2022-12-01T00:44:47;42.73;;;24.20;;
62798;SDS011;48842;51.046;13.796;2022-12-01T00:47:13;52.07;;;26.10;;
62798;SDS011;48842;51.046;13.796;2022-12-01T00:49:38;49.07;;;26.90;;
62798;SDS011;48842;51.046;13.796;2022-12-01T00:52:04;43.33;;;26.57;;
62798;SDS011;48842;51.046;13.796;2022-12-01T00:54:29;42.30;;;24.40;;
62798;SDS011;48842;51.046;13.796;2022-12-01T00:56:56;41.83;;;24.47;;
62798;SDS011;48842;51.046;13.796;2022-12-01T00:59:22;43.90;;;25.10;;
62798;SDS011;48842;51.046;13.796;2022-12-01T01:01:48;42.03;;;23.23;;
62798;SDS011;48842;51.046;13.796;2022-12-01T01:04:13;43.53;;;24.30;;
62798;SDS011;48842;51.046;13.796;2022-12-01T01:06:38;43.27;;;25.77;;
62798;SDS011;48842;51.046;13.796;2022-12-01T01:09:04;49.87;;;25.70;;
62798;SDS011;48842;51.046;13.796;2022-12-01T01:11:29;47.33;;;24.87;;
62798;SDS011;48842;51.046;13.796;2022-12-01T01:13:54;47.70;;;25.67;;
62798;SDS011;48842;51.046;13.796;2022-12-01T01:16:20;49.43;;;25.70;;
62798;SDS011;48842;51.046;13.796;2022-12-01T01:18:46;47.00;;;25.60;;
62798;SDS011;48842;51.046;13.796;2022-12-01T01:21:16;44.80;;;25.60;;
62798;SDS011;48842;51.046;13.796;2022-12-01T01:23:44;48.60;;;26.10;;
62798;SDS011;48842;51.046;13.796;2022-12-01T01:26:10;47.10;;;26.87;;
62798;SDS011;48842;51.046;13.796;2022-12-01T01:28:36;48.97;;;24.10;;
62798;SDS011;48842;51.046;13.796;2022-12-01T01:31:05;47.77;;;26.07;;
62798;SDS011;48842;51.046;13.796;2022-12-01T01:33:34;43.30;;;26.27;;
62798;SDS011;48842;51.046;13.796;2022-12-01T01:36:00;48.13;;;26.87;;
62798;SDS011;48842;51.046;13.796;2022-12-01T01:38:27;48.67;;;25.80;;
62798;SDS011;48842;51.046;13.796;2022-12-01T01:40:53;50.38;;;25.55;;
62798;SDS011;48842;51.046;13.796;2022-12-01T01:43:38;53.80;;;26.37;;
62798;SDS011;48842;51.046;13.796;2022-12-01T01:46:14;42.60;;;24.10;;
62798;SDS011;48842;51.046;13.796;2022-12-01T01:48:39;52.25;;;26.90;;
62798;SDS011;48842;51.046;13.796;2022-12-01T01:51:07;49.00;;;26.60;;
62798;SDS011;48842;51.046;13.796;2022-12-01T01:53:35;48.83;;;27.90;;
62798;SDS011;48842;51.046;13.796;2022-12-01T01:56:00;48.90;;;25.97;;
62798;SDS011;48842;51.046;13.796;2022-12-01T01:58:27;52.63;;;26.30;;
62798;SDS011;48842;51.046;13.796;2022-12-01T02:00:53;53.43;;;25.90;;
62798;SDS011;48842;51.046;13.796;2022-12-01T02:03:18;48.00;;;25.77;;
62798;SDS011;48842;51.046;13.796;2022-12-01T02:05:45;51.87;;;27.83;;
62798;SDS011;48842;51.046;13.796;2022-12-01T02:08:11;50.13;;;27.20;;
62798;SDS011;48842;51.046;13.796;2022-12-01T02:13:32;45.33;;;26.40;;
62798;SDS011;48842;51.046;13.796;2022-12-01T02:19:41;47.80;;;25.70;;
62798;SDS011;48842;51.046;13.796;2022-12-01T02:22:13;49.40;;;25.70;;
62798;SDS011;48842;51.046;13.796;2022-12-01T02:30:38;45.57;;;25.17;;
62798;SDS011;48842;51.046;13.796;2022-12-01T02:33:18;53.47;;;26.70;;
62798;SDS011;48842;51.046;13.796;2022-12-01T02:38:34;49.13;;;25.53;;
62798;SDS011;48842;51.046;13.796;2022-12-01T02:41:08;55.40;;;26.73;;
62798;SDS011;48842;51.046;13.796;2022-12-01T02:43:52;56.07;;;28.23;;
62798;SDS011;48842;51.046;13.796;2022-12-01T02:46:26;56.80;;;27.70;;
62798;SDS011;48842;51.046;13.796;2022-12-01T02:48:57;56.00;;;27.30;;
62798;SDS011;48842;51.046;13.796;2022-12-01T02:51:28;58.40;;;28.77;;
62798;SDS011;48842;51.046;13.796;2022-12-01T02:53:57;48.47;;;25.97;;
62798;SDS011;48842;51.046;13.796;2022-12-01T02:56:23;56.33;;;25.83;;
62798;SDS011;48842;51.046;13.796;2022-12-01T02:58:49;61.07;;;27.57;;
62798;SDS011;48842;51.046;13.796;2022-12-01T03:09:46;59.40;;;26.43;;
62798;SDS011;48842;51.046;13.796;2022-12-01T03:15:17;48.50;;;24.80;;
62798;SDS011;48842;51.046;13.796;2022-12-01T03:18:13;52.95;;;24.20;;
62798;SDS011;48842;51.046;13.796;2022-12-01T03:21:07;67.67;;;28.90;;
62798;SDS011;48842;51.046;13.796;2022-12-01T03:23:43;54.43;;;27.97;;
62798;SDS011;48842;51.046;13.796;2022-12-01T03:26:14;59.77;;;27.17;;
62798;SDS011;48842;51.046;13.796;2022-12-01T03:28:44;64.45;;;28.45;;
62798;SDS011;48842;51.046;13.796;2022-12-01T03:31:18;61.80;;;28.13;;
62798;SDS011;48842;51.046;13.796;2022-12-01T03:33:51;66.93;;;27.90;;
62798;SDS011;48842;51.046;13.796;2022-12-01T03:36:23;63.95;;;28.42;;
62798;SDS011;48842;51.046;13.796;2022-12-01T03:38:54;58.63;;;26.13;;
62798;SDS011;48842;51.046;13.796;2022-12-01T03:41:25;60.80;;;26.03;;
62798;SDS011;48842;51.046;13.796;2022-12-01T03:43:59;59.03;;;27.17;;
62798;SDS011;48842;51.046;13.796;2022-12-01T03:46:37;53.77;;;25.90;;
62798;SDS011;48842;51.046;13.796;2022-12-01T03:49:10;59.60;;;24.67;;
62798;SDS011;48842;51.046;13.796;2022-12-01T03:51:48;58.87;;;27.80;;
62798;SDS011;48842;51.046;13.796;2022-12-01T03:57:13;58.27;;;26.27;;
62798;SDS011;48842;51.046;13.796;2022-12-01T03:59:41;66.23;;;27.83;;
62798;SDS011;48842;51.046;13.796;2022-12-01T04:02:09;67.07;;;29.20;;
62798;SDS011;48842;51.046;13.796;2022-12-01T04:04:34;58.67;;;24.83;;
62798;SDS011;48842;51.046;13.796;2022-12-01T04:06:59;64.13;;;27.93;;
62798;SDS011;48842;51.046;13.796;2022-12-01T04:09:25;64.57;;;27.37;;
62798;SDS011;48842;51.046;13.796;2022-12-01T04:11:50;67.13;;;28.27;;
62798;SDS011;48842;51.046;13.796;2022-12-01T04:14:33;60.77;;;26.33;;
62798;SDS011;48842;51.046;13.796;2022-12-01T04:16:59;61.97;;;27.63;;
62798;SDS011;48842;51.046;13.796;2022-12-01T04:19:24;60.33;;;26.97;;
62798;SDS011;48842;51.046;13.796;2022-12-01T04:21:49;61.63;;;26.43;;
62798;SDS011;48842;51.046;13.796;2022-12-01T04:24:14;66.83;;;30.03;;
62798;SDS011;48842;51.046;13.796;2022-12-01T04:26:40;74.10;;;30.20;;
62798;SDS011;48842;51.046;13.796;2022-12-01T04:29:07;70.13;;;29.97;;
62798;SDS011;48842;51.046;13.796;2022-12-01T04:31:34;69.33;;;29.87;;
62798;SDS011;48842;51.046;13.796;2022-12-01T04:33:59;71.90;;;30.67;;
62798;SDS011;48842;51.046;13.796;2022-12-01T04:36:26;71.00;;;30.27;;
62798;SDS011;48842;51.046;13.796;2022-12-01T04:38:54;62.20;;;28.47;;
62798;SDS011;48842;51.046;13.796;2022-12-01T04:41:19;71.77;;;30.80;;
62798;SDS011;48842;51.046;13.796;2022-12-01T04:43:45;76.13;;;31.27;;
62798;SDS011;48842;51.046;13.796;2022-12-01T04:46:10;72.43;;;30.67;;
62798;SDS011;48842;51.046;13.796;2022-12-01T04:48:36;67.77;;;30.57;;
62798;SDS011;48842;51.046;13.796;2022-12-01T04:51:02;81.93;;;30.97;;
62798;SDS011;48842;51.046;13.796;2022-12-01T04:53:29;70.67;;;30.00;;
62798;SDS011;48842;51.046;13.796;2022-12-01T04:55:55;76.37;;;30.57;;
62798;SDS011;48842;51.046;13.796;2022-12-01T04:58:20;74.37;;;31.77;;
62798;SDS011;48842;51.046;13.796;2022-12-01T05:00:45;79.87;;;32.97;;
62798;SDS011;48842;51.046;13.796;2022-12-01T05:03:11;60.93;;;28.10;;
62798;SDS011;48842;51.046;13.796;2022-12-01T05:05:36;81.70;;;32.37;;
62798;SDS011;48842;51.046;13.796;2022-12-01T05:08:01;70.50;;;30.90;;
62798;SDS011;48842;51.046;13.796;2022-12-01T05:10:27;81.53;;;32.87;;
62798;SDS011;48842;51.046;13.796;2022-12-01T05:12:52;84.23;;;32.60;;
62798;SDS011;48842;51.046;13.796;2022-12-01T05:15:19;78.93;;;30.10;;
62798;SDS011;48842;51.046;13.796;2022-12-01T05:17:44;83.20;;;32.63;;
62798;SDS011;48842;51.046;13.796;2022-12-01T05:20:13;79.73;;;31.93;;
62798;SDS011;48842;51.046;13.796;2022-12-01T05:23:01;76.73;;;31.20;;
62798;SDS011;48842;51.046;13.796;2022-12-01T05:25:27;69.17;;;30.53;;
62798;SDS011;48842;51.046;13.796;2022-12-01T05:27:52;79.00;;;31.37;;
62798;SDS011;48842;51.046;13.796;2022-12-01T05:30:17;78.20;;;33.00;;
62798;SDS011;48842;51.046;13.796;2022-12-01T05:32:43;86.07;;;31.60;;
62798;SDS011;48842;51.046;13.796;2022-12-01T05:35:08;80.17;;;32.33;;
62798;SDS011;48842;51.046;13.796;2022-12-01T05:37:33;74.40;;;31.20;;
62798;SDS011;48842;51.046;13.796;2022-12-01T05:39:59;85.47;;;32.97;;
62798;SDS011;48842;51.046;13.796;2022-12-01T05:42:25;76.20;;;31.33;;
62798;SDS011;48842;51.046;13.796;2022-12-01T05:44:51;72.43;;;30.80;;
62798;SDS011;48842;51.046;13.796;2022-12-01T05:47:16;66.27;;;28.93;;
62798;SDS011;48842;51.046;13.796;2022-12-01T05:49:41;76.77;;;31.30;;
62798;SDS011;48842;51.046;13.796;2022-12-01T05:52:06;81.03;;;30.07;;
62798;SDS011;48842;51.046;13.796;2022-12-01T05:54:32;73.13;;;31.70;;
62798;SDS011;48842;51.046;13.796;2022-12-01T05:56:57;73.80;;;30.83;;
62798;SDS011;48842;51.046;13.796;2022-12-01T05:59:22;76.70;;;31.33;;
62798;SDS011;48842;51.046;13.796;2022-12-01T06:01:47;79.57;;;30.97;;
62798;SDS011;48842;51.046;13.796;2022-12-01T06:04:13;78.03;;;32.67;;
62798;SDS011;48842;51.046;13.796;2022-12-01T06:06:38;78.87;;;34.33;;
62798;SDS011;48842;51.046;13.796;2022-12-01T06:09:04;82.23;;;32.90;;
62798;SDS011;48842;51.046;13.796;2022-12-01T06:11:29;71.00;;;29.90;;
62798;SDS011;48842;51.046;13.796;2022-12-01T06:13:54;73.00;;;30.60;;
62798;SDS011;48842;51.046;13.796;2022-12-01T06:16:20;77.93;;;30.67;;
62798;SDS011;48842;51.046;13.796;2022-12-01T06:18:45;73.33;;;30.33;;
62798;SDS011;48842;51.046;13.796;2022-12-01T06:21:10;73.43;;;29.90;;
62798;SDS011;48842;51.046;13.796;2022-12-01T06:23:35;67.40;;;29.00;;
62798;SDS011;48842;51.046;13.796;2022-12-01T06:26:01;66.77;;;30.13;;
62798;SDS011;48842;51.046;13.796;2022-12-01T06:28:26;70.80;;;30.23;;
62798;SDS011;48842;51.046;13.796;2022-12-01T06:30:51;77.70;;;30.30;;
62798;SDS011;48842;51.046;13.796;2022-12-01T06:33:17;77.53;;;33.30;;
62798;SDS011;48842;51.046;13.796;2022-12-01T06:35:42;73.30;;;32.20;;
62798;SDS011;48842;51.046;13.796;2022-12-01T06:38:07;77.53;;;30.13;;
62798;SDS011;48842;51.046;13.796;2022-12-01T06:40:32;61.40;;;30.43;;
62798;SDS011;48842;51.046;13.796;2022-12-01T06:42:58;71.70;;;30.90;;
62798;SDS011;48842;51.046;13.796;2022-12-01T06:45:25;72.13;;;31.03;;
62798;SDS011;48842;51.046;13.796;2022-12-01T06:47:54;79.67;;;31.00;;
62798;SDS011;48842;51.046;13.796;2022-12-01T06:50:20;78.00;;;32.47;;
62798;SDS011;48842;51.046;13.796;2022-12-01T06:52:45;72.80;;;31.80;;
62798;SDS011;48842;51.046;13.796;2022-12-01T06:55:11;71.43;;;28.47;;
62798;SDS011;48842;51.046;13.796;2022-12-01T06:57:37;82.77;;;30.73;;
62798;SDS011;48842;51.046;13.796;2022-12-01T07:00:02;79.70;;;33.30;;
62798;SDS011;48842;51.046;13.796;2022-12-01T07:02:28;74.93;;;31.00;;
62798;SDS011;48842;51.046;13.796;2022-12-01T07:04:53;76.83;;;31.53;;
62798;SDS011;48842;51.046;13.796;2022-12-01T07:07:19;76.30;;;32.33;;
62798;SDS011;48842;51.046;13.796;2022-12-01T07:09:44;79.40;;;35.57;;
62798;SDS011;48842;51.046;13.796;2022-12-01T07:12:09;85.47;;;33.50;;
62798;SDS011;48842;51.046;13.796;2022-12-01T07:14:34;88.80;;;34.37;;
62798;SDS011;48842;51.046;13.796;2022-12-01T07:17:00;88.73;;;35.67;;
62798;SDS011;48842;51.046;13.796;2022-12-01T07:19:25;81.90;;;35.37;;
62798;SDS011;48842;51.046;13.796;2022-12-01T07:21:51;81.17;;;33.87;;
62798;SDS011;48842;51.046;13.796;2022-12-01T07:24:16;90.37;;;35.33;;
62798;SDS011;48842;51.046;13.796;2022-12-01T07:26:41;82.43;;;32.93;;
62798;SDS011;48842;51.046;13.796;2022-12-01T07:29:08;84.50;;;34.97;;
62798;SDS011;48842;51.046;13.796;2022-12-01T07:31:34;85.18;;;33.88;;
62798;SDS011;48842;51.046;13.796;2022-12-01T07:34:00;77.85;;;34.63;;
62798;SDS011;48842;51.046;13.796;2022-12-01T07:36:25;79.93;;;35.00;;
62798;SDS011;48842;51.046;13.796;2022-12-01T07:38:51;77.17;;;36.23;;
62798;SDS011;48842;51.046;13.796;2022-12-01T07:41:16;74.67;;;34.47;;
62798;SDS011;48842;51.046;13.796;2022-12-01T07:43:43;72.13;;;34.88;;
62798;SDS011;48842;51.046;13.796;2022-12-01T07:46:15;76.13;;;34.43;;
62798;SDS011;48842;51.046;13.796;2022-12-01T07:48:42;68.63;;;31.63;;
62798;SDS011;48842;51.046;13.796;2022-12-01T07:51:09;71.07;;;32.77;;
62798;SDS011;48842;51.046;13.796;2022-12-01T07:53:36;77.10;;;34.45;;
62798;SDS011;48842;51.046;13.796;2022-12-01T07:56:01;80.60;;;36.10;;
62798;SDS011;48842;51.046;13.796;2022-12-01T07:58:28;81.88;;;35.67;;
62798;SDS011;48842;51.046;13.796;2022-12-01T08:00:53;89.30;;;37.57;;
62798;SDS011;48842;51.046;13.796;2022-12-01T08:03:19;78.47;;;36.17;;
62798;SDS011;48842;51.046;13.796;2022-12-01T08:05:44;84.43;;;36.70;;
62798;SDS011;48842;51.046;13.796;2022-12-01T08:08:12;79.23;;;36.10;;
62798;SDS011;48842;51.046;13.796;2022-12-01T08:10:37;75.53;;;35.20;;
62798;SDS011;48842;51.046;13.796;2022-12-01T08:13:03;79.33;;;35.20;;
62798;SDS011;48842;51.046;13.796;2022-12-01T08:15:28;75.57;;;34.77;;
62798;SDS011;48842;51.046;13.796;2022-12-01T08:17:53;77.90;;;35.73;;
62798;SDS011;48842;51.046;13.796;2022-12-01T08:20:19;87.37;;;36.47;;
62798;SDS011;48842;51.046;13.796;2022-12-01T08:22:45;83.87;;;37.03;;
62798;SDS011;48842;51.046;13.796;2022-12-01T08:25:13;84.88;;;37.08;;
62798;SDS011;48842;51.046;13.796;2022-12-01T08:27:38;96.03;;;39.33;;
62798;SDS011;48842;51.046;13.796;2022-12-01T08:30:04;80.80;;;36.40;;
62798;SDS011;48842;51.046;13.796;2022-12-01T08:32:30;89.60;;;37.77;;
62798;SDS011;48842;51.046;13.796;2022-12-01T08:34:55;81.30;;;37.83;;
62798;SDS011;48842;51.046;13.796;2022-12-01T08:37:20;91.73;;;39.03;;
62798;SDS011;48842;51.046;13.796;2022-12-01T08:39:45;82.53;;;38.30;;
62798;SDS011;48842;51.046;13.796;2022-12-01T08:42:11;95.87;;;40.17;;
62798;SDS011;48842;51.046;13.796;2022-12-01T08:44:36;87.87;;;38.50;;
62798;SDS011;48842;51.046;13.796;2022-12-01T08:47:02;87.20;;;38.60;;
62798;SDS011;48842;51.046;13.796;2022-12-01T08:49:27;91.97;;;40.83;;
62798;SDS011;48842;51.046;13.796;2022-12-01T08:51:52;100.80;;;42.37;;
62798;SDS011;48842;51.046;13.796;2022-12-01T08:54:20;87.57;;;41.40;;
62798;SDS011;48842;51.046;13.796;2022-12-01T08:56:45;92.00;;;40.87;;
62798;SDS011;48842;51.046;13.796;2022-12-01T08:59:10;91.90;;;42.00;;
62798;SDS011;48842;51.046;13.796;2022-12-01T09:01:36;104.20;;;45.40;;
62798;SDS011;48842;51.046;13.796;2022-12-01T09:04:24;95.80;;;41.50;;
62798;SDS011;48842;51.046;13.796;2022-12-01T09:06:51;96.97;;;39.40;;
62798;SDS011;48842;51.046;13.796;2022-12-01T09:09:21;96.80;;;43.23;;
62798;SDS011;48842;51.046;13.796;2022-12-01T09:11:52;100.10;;;41.27;;
62798;SDS011;48842;51.046;13.796;2022-12-01T09:14:18;93.63;;;39.73;;
62798;SDS011;48842;51.046;13.796;2022-12-01T09:16:45;106.60;;;43.40;;
62798;SDS011;48842;51.046;13.796;2022-12-01T09:19:12;103.60;;;41.73;;
62798;SDS011;48842;51.046;13.796;2022-12-01T09:21:38;100.47;;;41.70;;
62798;SDS011;48842;51.046;13.796;2022-12-01T09:24:04;94.30;;;40.70;;
62798;SDS011;48842;51.046;13.796;2022-12-01T09:26:31;104.30;;;43.17;;
62798;SDS011;48842;51.046;13.796;2022-12-01T09:28:59;95.07;;;40.78;;
62798;SDS011;48842;51.046;13.796;2022-12-01T09:31:25;93.50;;;40.17;;
62798;SDS011;48842;51.046;13.796;2022-12-01T09:33:59;91.47;;;41.67;;
62798;SDS011;48842;51.046;13.796;2022-12-01T09:36:28;107.50;;;43.20;;
62798;SDS011;48842;51.046;13.796;2022-12-01T09:38:55;96.05;;;43.40;;
62798;SDS011;48842;51.046;13.796;2022-12-01T09:46:43;93.10;;;41.03;;
62798;SDS011;48842;51.046;13.796;2022-12-01T09:49:40;83.47;;;39.17;;
62798;SDS011;48842;51.046;13.796;2022-12-01T09:52:10;96.75;;;40.70;;
62798;SDS011;48842;51.046;13.796;2022-12-01T09:54:38;91.57;;;39.63;;
62798;SDS011;48842;51.046;13.796;2022-12-01T09:57:05;89.13;;;39.53;;
62798;SDS011;48842;51.046;13.796;2022-12-01T09:59:31;103.97;;;45.13;;
62798;SDS011;48842;51.046;13.796;2022-12-01T10:02:03;95.87;;;42.40;;
62798;SDS011;48842;51.046;13.796;2022-12-01T10:04:45;85.43;;;40.80;;
62798;SDS011;48842;51.046;13.796;2022-12-01T10:07:16;84.77;;;41.20;;
62798;SDS011;48842;51.046;13.796;2022-12-01T10:09:46;82.43;;;38.60;;
62798;SDS011;48842;51.046;13.796;2022-12-01T10:12:18;83.97;;;38.08;;
62798;SDS011;48842;51.046;13.796;2022-12-01T10:14:46;80.23;;;38.60;;
62798;SDS011;48842;51.046;13.796;2022-12-01T10:25:39;82.27;;;38.53;;
62798;SDS011;48842;51.046;13.796;2022-12-01T10:31:10;83.33;;;39.60;;
62798;SDS011;48842;51.046;13.796;2022-12-01T10:33:40;79.67;;;38.43;;
62798;SDS011;48842;51.046;13.796;2022-12-01T10:36:25;86.70;;;39.43;;
62798;SDS011;48842;51.046;13.796;2022-12-01T10:38:52;97.43;;;40.80;;
62798;SDS011;48842;51.046;13.796;2022-12-01T10:41:18;89.60;;;41.78;;
62798;SDS011;48842;51.046;13.796;2022-12-01T10:43:47;87.90;;;39.33;;
62798;SDS011;48842;51.046;13.796;2022-12-01T10:48:59;76.70;;;37.07;;
62798;SDS011;48842;51.046;13.796;2022-12-01T10:51:33;71.93;;;35.23;;
62798;SDS011;48842;51.046;13.796;2022-12-01T10:54:19;83.67;;;38.23;;
62798;SDS011;48842;51.046;13.796;2022-12-01T10:56:47;81.37;;;38.90;;
62798;SDS011;48842;51.046;13.796;2022-12-01T10:59:23;85.27;;;40.60;;
62798;SDS011;48842;51.046;13.796;2022-12-01T11:01:52;83.40;;;39.50;;
62798;SDS011;48842;51.046;13.796;2022-12-01T11:04:24;80.87;;;39.13;;
62798;SDS011;48842;51.046;13.796;2022-12-01T11:06:59;85.10;;;39.80;;
62798;SDS011;48842;51.046;13.796;2022-12-01T11:09:25;75.60;;;37.10;;
62798;SDS011;48842;51.046;13.796;2022-12-01T11:11:53;87.43;;;40.63;;
62798;SDS011;48842;51.046;13.796;2022-12-01T11:14:22;80.93;;;38.77;;
62798;SDS011;48842;51.046;13.796;2022-12-01T11:16:51;85.20;;;39.27;;
62798;SDS011;48842;51.046;13.796;2022-12-01T11:22:39;78.17;;;37.33;;
62798;SDS011;48842;51.046;13.796;2022-12-01T11:24:57;80.10;;;37.50;;
62798;SDS011;48842;51.046;13.796;2022-12-01T11:27:26;76.00;;;37.40;;
62798;SDS011;48842;51.046;13.796;2022-12-01T11:29:59;78.33;;;38.17;;
62798;SDS011;48842;51.046;13.796;2022-12-01T11:32:30;80.30;;;37.17;;
62798;SDS011;48842;51.046;13.796;2022-12-01T11:34:59;83.47;;;37.70;;
62798;SDS011;48842;51.046;13.796;2022-12-01T11:37:33;71.30;;;36.90;;
62798;SDS011;48842;51.046;13.796;2022-12-01T11:40:14;68.37;;;34.77;;
62798;SDS011;48842;51.046;13.796;2022-12-01T11:42:48;70.93;;;35.40;;
62798;SDS011;48842;51.046;13.796;2022-12-01T11:50:43;78.50;;;38.43;;
62798;SDS011;48842;51.046;13.796;2022-12-01T11:53:30;68.70;;;35.33;;
62798;SDS011;48842;51.046;13.796;2022-12-01T11:56:22;75.55;;;36.75;;
62798;SDS011;48842;51.046;13.796;2022-12-01T11:59:07;74.43;;;38.23;;
62798;SDS011;48842;51.046;13.796;2022-12-01T12:04:54;69.90;;;36.00;;
62798;SDS011;48842;51.046;13.796;2022-12-01T12:07:36;73.00;;;37.17;;
62798;SDS011;48842;51.046;13.796;2022-12-01T12:10:20;63.50;;;31.60;;
62798;SDS011;48842;51.046;13.796;2022-12-01T12:13:02;70.27;;;35.30;;
62798;SDS011;48842;51.046;13.796;2022-12-01T12:18:28;73.47;;;36.80;;
62798;SDS011;48842;51.046;13.796;2022-12-01T12:23:53;68.90;;;35.70;;
62798;SDS011;48842;51.046;13.796;2022-12-01T12:31:56;67.73;;;33.93;;
62798;SDS011;48842;51.046;13.796;2022-12-01T12:34:42;65.13;;;33.83;;
62798;SDS011;48842;51.046;13.796;2022-12-01T12:48:36;59.50;;;32.23;;
62798;SDS011;48842;51.046;13.796;2022-12-01T12:53:39;63.47;;;33.28;;
62798;SDS011;48842;51.046;13.796;2022-12-01T12:56:11;71.90;;;35.60;;
62798;SDS011;48842;51.046;13.796;2022-12-01T12:58:52;66.70;;;35.17;;
62798;SDS011;48842;51.046;13.796;2022-12-01T13:01:22;70.80;;;33.58;;
62798;SDS011;48842;51.046;13.796;2022-12-01T13:03:56;71.30;;;37.27;;
62798;SDS011;48842;51.046;13.796;2022-12-01T13:09:00;70.60;;;35.53;;
62798;SDS011;48842;51.046;13.796;2022-12-01T13:11:35;60.77;;;31.93;;
62798;SDS011;48842;51.046;13.796;2022-12-01T13:14:41;69.10;;;35.45;;
62798;SDS011;48842;51.046;13.796;2022-12-01T13:17:18;64.77;;;33.00;;
62798;SDS011;48842;51.046;13.796;2022-12-01T13:19:47;64.55;;;33.15;;
62798;SDS011;48842;51.046;13.796;2022-12-01T13:22:13;66.03;;;34.37;;
62798;SDS011;48842;51.046;13.796;2022-12-01T13:24:42;68.83;;;33.40;;
62798;SDS011;48842;51.046;13.796;2022-12-01T13:27:18;66.87;;;36.87;;
62798;SDS011;48842;51.046;13.796;2022-12-01T13:29:46;64.67;;;33.10;;
62798;SDS011;48842;51.046;13.796;2022-12-01T13:32:30;67.03;;;35.47;;
62798;SDS011;48842;51.046;13.796;2022-12-01T13:34:58;63.10;;;33.27;;
62798;SDS011;48842;51.046;13.796;2022-12-01T13:37:34;67.00;;;34.77;;
62798;SDS011;48842;51.046;13.796;2022-12-01T13:40:09;64.20;;;34.30;;
62798;SDS011;48842;51.046;13.796;2022-12-01T13:43:02;57.90;;;33.00;;
62798;SDS011;48842;51.046;13.796;2022-12-01T13:45:34;67.63;;;33.03;;
62798;SDS011;48842;51.046;13.796;2022-12-01T13:48:02;66.67;;;35.17;;
62798;SDS011;48842;51.046;13.796;2022-12-01T13:53:12;61.90;;;32.47;;
62798;SDS011;48842;51.046;13.796;2022-12-01T13:55:52;66.20;;;34.20;;
62798;SDS011;48842;51.046;13.796;2022-12-01T14:03:51;66.40;;;35.07;;
62798;SDS011;48842;51.046;13.796;2022-12-01T14:06:25;64.10;;;33.53;;
62798;SDS011;48842;51.046;13.796;2022-12-01T14:09:35;63.47;;;33.57;;
62798;SDS011;48842;51.046;13.796;2022-12-01T14:11:41;55.83;;;30.57;;
62798;SDS011;48842;51.046;13.796;2022-12-01T14:14:21;64.30;;;32.37;;
62798;SDS011;48842;51.046;13.796;2022-12-01T14:16:54;65.57;;;35.27;;
62798;SDS011;48842;51.046;13.796;2022-12-01T14:24:56;61.03;;;31.80;;
62798;SDS011;48842;51.046;13.796;2022-12-01T14:27:36;59.17;;;31.63;;
62798;SDS011;48842;51.046;13.796;2022-12-01T14:36:06;72.43;;;34.10;;
62798;SDS011;48842;51.046;13.796;2022-12-01T14:38:40;71.43;;;34.33;;
62798;SDS011;48842;51.046;13.796;2022-12-01T14:41:08;70.07;;;33.77;;
62798;SDS011;48842;51.046;13.796;2022-12-01T14:43:34;64.47;;;33.47;;
62798;SDS011;48842;51.046;13.796;2022-12-01T14:46:21;73.47;;;36.73;;
62798;SDS011;48842;51.046;13.796;2022-12-01T14:48:50;72.67;;;36.97;;
62798;SDS011;48842;51.046;13.796;2022-12-01T14:51:25;69.07;;;34.57;;
62798;SDS011;48842;51.046;13.796;2022-12-01T14:53:53;67.50;;;35.28;;
62798;SDS011;48842;51.046;13.796;2022-12-01T14:56:21;72.17;;;36.10;;
62798;SDS011;48842;51.046;13.796;2022-12-01T14:58:50;71.87;;;36.40;;
62798;SDS011;48842;51.046;13.796;2022-12-01T15:01:20;72.25;;;37.33;;
62798;SDS011;48842;51.046;13.796;2022-12-01T15:03:53;72.00;;;36.13;;
62798;SDS011;48842;51.046;13.796;2022-12-01T15:06:25;69.25;;;37.10;;
62798;SDS011;48842;51.046;13.796;2022-12-01T15:12:05;69.30;;;35.80;;
62798;SDS011;48842;51.046;13.796;2022-12-01T15:14:35;68.93;;;36.55;;
62798;SDS011;48842;51.046;13.796;2022-12-01T15:17:02;69.50;;;36.70;;
62798;SDS011;48842;51.046;13.796;2022-12-01T15:19:33;75.68;;;38.03;;
62798;SDS011;48842;51.046;13.796;2022-12-01T15:22:02;71.85;;;37.38;;
62798;SDS011;48842;51.046;13.796;2022-12-01T15:24:30;73.10;;;37.80;;
62798;SDS011;48842;51.046;13.796;2022-12-01T15:26:57;70.28;;;34.05;;
62798;SDS011;48842;51.046;13.796;2022-12-01T15:29:24;66.13;;;37.25;;
62798;SDS011;48842;51.046;13.796;2022-12-01T15:31:55;66.57;;;38.07;;
62798;SDS011;48842;51.046;13.796;2022-12-01T15:34:25;66.20;;;33.50;;
62798;SDS011;48842;51.046;13.796;2022-12-01T15:36:57;60.63;;;34.03;;
62798;SDS011;48842;51.046;13.796;2022-12-01T15:39:43;61.20;;;33.77;;
62798;SDS011;48842;51.046;13.796;2022-12-01T15:42:23;60.73;;;32.00;;
62798;SDS011;48842;51.046;13.796;2022-12-01T15:45:03;57.63;;;31.93;;
62798;SDS011;48842;51.046;13.796;2022-12-01T15:50:25;58.37;;;31.23;;
62798;SDS011;48842;51.046;13.796;2022-12-01T15:52:54;57.50;;;31.50;;
62798;SDS011;48842;51.046;13.796;2022-12-01T15:55:26;60.13;;;32.63;;
62798;SDS011;48842;51.046;13.796;2022-12-01T15:57:54;54.00;;;30.70;;
62798;SDS011;48842;51.046;13.796;2022-12-01T16:00:20;61.63;;;34.17;;
62798;SDS011;48842;51.046;13.796;2022-12-01T16:02:50;67.93;;;33.08;;
62798;SDS011;48842;51.046;13.796;2022-12-01T16:05:18;54.23;;;32.43;;
62798;SDS011;48842;51.046;13.796;2022-12-01T16:07:47;62.33;;;31.80;;
62798;SDS011;48842;51.046;13.796;2022-12-01T16:10:32;62.40;;;33.07;;
62798;SDS011;48842;51.046;13.796;2022-12-01T16:18:58;53.27;;;30.20;;
62798;SDS011;48842;51.046;13.796;2022-12-01T16:21:31;50.70;;;31.80;;